Time;durP1;ratioP1;P1;durP2;ratioP2;P2;SDS_P1;SDS_P2;PMS_P1;PMS_P2;Temp;Humidity;BMP_temperature;BMP_pressure;BME280_temperature;BME280_humidity;BME280_pressure;Samples;Min_cycle;Max_cycle;Signal;HPM_P1;HPM_P2
2020/12/03 00:00:07;;;;;;;86.47;53.25;;;;;;;;;;4963279;28;20548;-75
2020/12/03 00:02:34;;;;;;;81.57;56.95;;;;;;;;;;4997744;28;20176;-76
2020/12/03 00:05:00;;;;;;;88.63;52.50;;;;;;;;;;4963472;28;20251;-77
2020/12/03 00:07:26;;;;;;;82.07;58.55;;;;;;;;;;4963085;28;20239;-76
2020/12/03 00:09:52;;;;;;;90.45;58.40;;;;;;;;;;4996898;28;20227;-76
2020/12/03 00:12:20;;;;;;;84.85;59.55;;;;;;;;;;4979075;28;20243;-75
2020/12/03 00:14:46;;;;;;;88.97;53.97;;;;;;;;;;4996094;28;20196;-75
2020/12/03 00:17:12;;;;;;;89.80;57.85;;;;;;;;;;4979554;28;20177;-75
2020/12/03 00:19:38;;;;;;;84.05;54.50;;;;;;;;;;4978455;28;20207;-76
2020/12/03 00:22:07;;;;;;;88.63;55.33;;;;;;;;;;4995207;28;20172;-75
2020/12/03 00:24:33;;;;;;;77.45;52.38;;;;;;;;;;4994963;28;20291;-76
2020/12/03 00:27:09;;;;;;;89.80;56.03;;;;;;;;;;4995826;28;20354;-76
2020/12/03 00:29:36;;;;;;;82.07;56.72;;;;;;;;;;4996381;28;20628;-76
2020/12/03 00:32:03;;;;;;;86.25;58.20;;;;;;;;;;4978463;28;20189;-75
2020/12/03 00:34:29;;;;;;;88.57;56.13;;;;;;;;;;4962702;28;20189;-76
2020/12/03 00:36:55;;;;;;;95.05;57.03;;;;;;;;;;4995870;28;20227;-76
2020/12/03 00:39:21;;;;;;;99.97;59.35;;;;;;;;;;4995682;28;20208;-77
2020/12/03 00:41:50;;;;;;;98.25;58.58;;;;;;;;;;4977961;28;20172;-76
2020/12/03 00:44:17;;;;;;;88.57;51.28;;;;;;;;;;4978288;28;20807;-76
2020/12/03 00:46:44;;;;;;;89.95;56.72;;;;;;;;;;4980531;28;20289;-76
2020/12/03 00:49:11;;;;;;;97.13;55.15;;;;;;;;;;4978128;28;20666;-76
2020/12/03 00:51:37;;;;;;;80.63;52.80;;;;;;;;;;4978282;28;20168;-76
2020/12/03 00:54:03;;;;;;;94.10;59.90;;;;;;;;;;4995660;28;20182;-76
2020/12/03 00:56:30;;;;;;;94.43;57.22;;;;;;;;;;4995273;28;20169;-75
2020/12/03 00:58:56;;;;;;;90.88;55.10;;;;;;;;;;4977277;28;20172;-76
2020/12/03 01:01:23;;;;;;;77.75;53.85;;;;;;;;;;4979243;28;20180;-75
2020/12/03 01:03:50;;;;;;;79.80;49.60;;;;;;;;;;4980076;28;20243;-75
2020/12/03 01:06:18;;;;;;;90.97;57.92;;;;;;;;;;4961889;28;20570;-75
2020/12/03 01:08:44;;;;;;;80.95;54.60;;;;;;;;;;4961534;28;20191;-76
2020/12/03 01:11:10;;;;;;;91.63;57.33;;;;;;;;;;4994813;28;20157;-76
2020/12/03 01:13:36;;;;;;;101.75;55.03;;;;;;;;;;4994446;28;20169;-76
2020/12/03 01:16:02;;;;;;;85.28;56.78;;;;;;;;;;4976993;28;20192;-76
2020/12/03 01:18:30;;;;;;;87.45;52.03;;;;;;;;;;4977219;28;20177;-76
2020/12/03 01:20:56;;;;;;;91.32;56.70;;;;;;;;;;4976961;28;20179;-76
2020/12/03 01:23:22;;;;;;;101.13;59.80;;;;;;;;;;4994177;28;20160;-76
2020/12/03 01:25:48;;;;;;;88.45;57.63;;;;;;;;;;4961063;28;20803;-77
2020/12/03 01:28:14;;;;;;;86.43;53.80;;;;;;;;;;4995067;28;20219;-76
2020/12/03 01:30:40;;;;;;;101.57;58.13;;;;;;;;;;4994959;28;20200;-77
2020/12/03 01:33:07;;;;;;;80.85;57.72;;;;;;;;;;4976921;28;20169;-76
2020/12/03 01:35:33;;;;;;;88.55;56.78;;;;;;;;;;4998180;28;20188;-76
2020/12/03 01:37:59;;;;;;;99.95;60.33;;;;;;;;;;4980936;28;20638;-76
2020/12/03 01:40:26;;;;;;;95.57;55.28;;;;;;;;;;4998311;28;20169;-76
2020/12/03 01:42:52;;;;;;;89.78;57.22;;;;;;;;;;4980608;28;20648;-77
2020/12/03 01:45:37;;;;;;;100.80;60.38;;;;;;;;;;4964373;28;20239;-76
2020/12/03 01:48:04;;;;;;;80.75;55.03;;;;;;;;;;4980467;28;20177;-75
2020/12/03 01:50:30;;;;;;;84.45;53.60;;;;;;;;;;4998101;28;20215;-77
2020/12/03 01:52:56;;;;;;;90.00;53.45;;;;;;;;;;4998013;28;20227;-75
2020/12/03 01:55:22;;;;;;;90.93;58.95;;;;;;;;;;4998041;28;20185;-76
2020/12/03 01:57:51;;;;;;;96.85;58.17;;;;;;;;;;4980345;28;20173;-75
2020/12/03 02:00:18;;;;;;;87.38;57.40;;;;;;;;;;4997949;28;20561;-75
2020/12/03 02:02:52;;;;;;;90.80;55.78;;;;;;;;;;4980172;28;20172;-75
2020/12/03 02:05:20;;;;;;;107.95;58.03;;;;;;;;;;4979847;28;20212;-76
2020/12/03 02:07:47;;;;;;;96.22;59.60;;;;;;;;;;4997287;28;20208;-76
2020/12/03 02:10:14;;;;;;;85.00;58.40;;;;;;;;;;4980072;28;20176;-76
2020/12/03 02:12:40;;;;;;;81.55;50.83;;;;;;;;;;4997230;28;20169;-76
2020/12/03 02:15:10;;;;;;;96.18;59.00;;;;;;;;;;4998130;28;20181;-76
2020/12/03 02:17:36;;;;;;;84.93;51.80;;;;;;;;;;4997514;28;20169;-76
2020/12/03 02:20:07;;;;;;;83.95;54.05;;;;;;;;;;4997277;28;20232;-75
2020/12/03 02:22:34;;;;;;;85.10;56.55;;;;;;;;;;4979479;28;20176;-76
2020/12/03 02:25:00;;;;;;;95.63;56.95;;;;;;;;;;4997438;28;20199;-75
2020/12/03 02:27:26;;;;;;;105.30;56.70;;;;;;;;;;4980184;28;20645;-75
2020/12/03 02:29:52;;;;;;;106.85;60.42;;;;;;;;;;4980024;28;20183;-76
2020/12/03 02:32:19;;;;;;;84.80;60.58;;;;;;;;;;4997281;28;20168;-76
2020/12/03 02:34:45;;;;;;;99.35;57.30;;;;;;;;;;4997108;28;20267;-75
2020/12/03 02:37:11;;;;;;;90.00;56.83;;;;;;;;;;4979538;28;20192;-76
2020/12/03 02:39:41;;;;;;;95.93;57.30;;;;;;;;;;4979326;28;20230;-76
2020/12/03 02:42:09;;;;;;;96.45;56.50;;;;;;;;;;4996816;28;20255;-75
2020/12/03 02:44:36;;;;;;;93.43;59.53;;;;;;;;;;4979506;28;20562;-76
2020/12/03 02:47:02;;;;;;;108.13;62.22;;;;;;;;;;4978374;28;20208;-76
2020/12/03 02:49:28;;;;;;;100.88;58.35;;;;;;;;;;4996638;28;20172;-76
2020/12/03 02:51:54;;;;;;;88.93;54.85;;;;;;;;;;4996530;28;20160;-76
2020/12/03 02:54:20;;;;;;;94.97;62.20;;;;;;;;;;4979271;28;20668;-76
2020/12/03 02:56:46;;;;;;;87.68;56.05;;;;;;;;;;4996856;28;20161;-76
2020/12/03 02:59:13;;;;;;;86.72;56.88;;;;;;;;;;4979255;28;20532;-76
2020/12/03 03:01:39;;;;;;;94.75;55.03;;;;;;;;;;4979136;28;20175;-75
2020/12/03 03:04:05;;;;;;;89.28;57.15;;;;;;;;;;4962763;28;20227;-76
2020/12/03 03:06:35;;;;;;;98.05;61.83;;;;;;;;;;4979310;28;20196;-76
2020/12/03 03:09:03;;;;;;;90.60;56.65;;;;;;;;;;4996279;28;20167;-76
2020/12/03 03:11:32;;;;;;;96.28;59.10;;;;;;;;;;4978819;28;20185;-76
2020/12/03 03:14:00;;;;;;;100.18;62.55;;;;;;;;;;4978753;28;20172;-76
2020/12/03 03:16:26;;;;;;;90.40;57.40;;;;;;;;;;4978705;28;20587;-75
2020/12/03 03:18:52;;;;;;;101.82;61.50;;;;;;;;;;4978718;28;20173;-74
2020/12/03 03:21:18;;;;;;;92.90;58.38;;;;;;;;;;4962644;28;20190;-76
2020/12/03 03:23:47;;;;;;;93.05;62.05;;;;;;;;;;4978559;28;20195;-76
2020/12/03 03:26:14;;;;;;;101.57;64.63;;;;;;;;;;4995895;28;20224;-76
2020/12/03 03:28:40;;;;;;;99.53;64.70;;;;;;;;;;4978557;28;20168;-77
2020/12/03 03:31:07;;;;;;;94.13;58.95;;;;;;;;;;4996039;28;20165;-75
2020/12/03 03:33:33;;;;;;;114.53;67.28;;;;;;;;;;4962459;28;20263;-76
2020/12/03 03:35:59;;;;;;;105.30;64.03;;;;;;;;;;4995799;28;20238;-76
2020/12/03 03:38:25;;;;;;;102.53;61.45;;;;;;;;;;4978408;28;20176;-77
2020/12/03 03:40:51;;;;;;;115.70;72.53;;;;;;;;;;4978168;28;20315;-76
2020/12/03 03:43:17;;;;;;;108.78;63.25;;;;;;;;;;4995439;28;20187;-75
2020/12/03 03:45:43;;;;;;;112.72;65.25;;;;;;;;;;4995529;28;20732;-77
2020/12/03 03:48:10;;;;;;;106.85;66.53;;;;;;;;;;4995806;28;20157;-77
2020/12/03 03:50:36;;;;;;;103.75;65.05;;;;;;;;;;4978599;28;20172;-77
2020/12/03 03:53:02;;;;;;;121.53;73.20;;;;;;;;;;4978121;28;20203;-75
2020/12/03 03:55:28;;;;;;;104.18;67.03;;;;;;;;;;4995979;28;20703;-76
2020/12/03 03:57:54;;;;;;;107.93;71.47;;;;;;;;;;4995134;28;20227;-76
2020/12/03 04:00:21;;;;;;;120.63;74.45;;;;;;;;;;4978111;28;20546;-76
2020/12/03 04:02:57;;;;;;;;;;;;;;;;;;;;;
2020/12/03 04:05:24;;;;;;;115.45;71.80;;;;;;;;;;4977891;28;20210;-76
2020/12/03 04:07:50;;;;;;;110.00;71.70;;;;;;;;;;4978449;28;20176;-76
2020/12/03 04:10:16;;;;;;;116.72;73.00;;;;;;;;;;4977972;28;20175;-76
2020/12/03 04:12:42;;;;;;;128.05;72.50;;;;;;;;;;4995824;28;20183;-76
2020/12/03 04:15:08;;;;;;;123.47;70.35;;;;;;;;;;4961480;28;20283;-76
2020/12/03 04:17:37;;;;;;;121.63;76.97;;;;;;;;;;4977656;28;20584;-76
2020/12/03 04:20:05;;;;;;;122.13;71.60;;;;;;;;;;4995270;28;20165;-76
2020/12/03 04:22:31;;;;;;;105.25;66.28;;;;;;;;;;4995355;28;20165;-76
2020/12/03 04:24:58;;;;;;;118.50;76.30;;;;;;;;;;4977158;28;20684;-76
2020/12/03 04:27:24;;;;;;;102.97;67.40;;;;;;;;;;4995153;28;20161;-76
2020/12/03 04:29:50;;;;;;;111.15;70.00;;;;;;;;;;4977640;28;20172;-76
2020/12/03 04:32:16;;;;;;;108.32;69.18;;;;;;;;;;4995165;28;20173;-75
2020/12/03 04:34:42;;;;;;;118.97;70.47;;;;;;;;;;4994792;28;20184;-77
2020/12/03 04:37:08;;;;;;;116.93;66.55;;;;;;;;;;4994582;28;20172;-76
2020/12/03 04:39:34;;;;;;;112.63;68.38;;;;;;;;;;4994910;28;20164;-76
2020/12/03 04:42:00;;;;;;;126.88;69.72;;;;;;;;;;4977182;28;20180;-76
2020/12/03 04:44:35;;;;;;;110.80;68.25;;;;;;;;;;4961309;28;20200;-75
2020/12/03 04:47:33;;;;;;;108.07;69.82;;;;;;;;;;4994661;28;20203;-76
2020/12/03 04:50:07;;;;;;;126.88;74.32;;;;;;;;;;4946120;28;20176;-76
2020/12/03 04:52:39;;;;;;;127.70;64.72;;;;;;;;;;4977610;28;20153;-76
2020/12/03 04:55:17;;;;;;;117.70;73.68;;;;;;;;;;4995286;28;20233;-76
2020/12/03 04:57:52;;;;;;;104.65;63.83;;;;;;;;;;4977941;28;20704;-76
2020/12/03 05:00:37;;;;;;;114.68;65.57;;;;;;;;;;4994700;28;20164;-77
2020/12/03 05:03:22;;;;;;;111.30;71.85;;;;;;;;;;4977204;28;20576;-76
2020/12/03 05:05:51;;;;;;;106.18;69.22;;;;;;;;;;4994769;28;20192;-75
2020/12/03 05:08:23;;;;;;;113.38;70.32;;;;;;;;;;4994412;28;20172;-75
2020/12/03 05:10:50;;;;;;;115.47;69.88;;;;;;;;;;4977437;28;20196;-76
2020/12/03 05:13:30;;;;;;;104.20;64.22;;;;;;;;;;4977272;28;20175;-76
2020/12/03 05:15:58;;;;;;;114.75;72.10;;;;;;;;;;4961267;28;20184;-76
2020/12/03 05:18:33;;;;;;;116.85;69.78;;;;;;;;;;4994909;28;20226;-76
2020/12/03 05:21:02;;;;;;;103.05;64.68;;;;;;;;;;4994782;28;20156;-76
2020/12/03 05:23:29;;;;;;;108.10;66.18;;;;;;;;;;4994414;28;20701;-76
2020/12/03 05:25:57;;;;;;;112.60;67.80;;;;;;;;;;4976935;28;20212;-76
2020/12/03 05:28:30;;;;;;;115.65;66.25;;;;;;;;;;4994612;28;20212;-76
2020/12/03 05:30:58;;;;;;;115.72;64.45;;;;;;;;;;4994440;28;20153;-75
2020/12/03 05:33:24;;;;;;;126.40;72.43;;;;;;;;;;4994338;28;20161;-75
2020/12/03 05:35:50;;;;;;;98.03;63.70;;;;;;;;;;4977217;28;20216;-76
2020/12/03 05:38:22;;;;;;;110.47;67.97;;;;;;;;;;4994339;28;20190;-76
2020/12/03 05:40:57;;;;;;;107.50;64.97;;;;;;;;;;4994415;28;20171;-76
2020/12/03 05:43:24;;;;;;;103.25;66.45;;;;;;;;;;4994400;28;20506;-76
2020/12/03 05:45:51;;;;;;;96.05;63.50;;;;;;;;;;4994186;28;20259;-75
2020/12/03 05:48:19;;;;;;;114.47;72.55;;;;;;;;;;4977199;28;20177;-75
2020/12/03 05:50:45;;;;;;;111.82;65.05;;;;;;;;;;4994553;28;20164;-75
2020/12/03 05:56:14;;;;;;;105.63;64.53;;;;;;;;;;4953884;28;20613;-75
2020/12/03 05:58:40;;;;;;;99.85;60.88;;;;;;;;;;4937622;29;20591;-75
2020/12/03 06:01:17;;;;;;;117.50;62.25;;;;;;;;;;4938068;29;20166;-75
2020/12/03 06:04:02;;;;;;;114.28;63.42;;;;;;;;;;4937192;29;20198;-76
2020/12/03 06:06:31;;;;;;;117.65;66.22;;;;;;;;;;4937321;29;20205;-76
2020/12/03 06:09:03;;;;;;;100.10;59.95;;;;;;;;;;4953367;29;20170;-76
2020/12/03 06:11:29;;;;;;;122.53;63.05;;;;;;;;;;4937288;29;20265;-75
2020/12/03 06:14:05;;;;;;;103.95;58.63;;;;;;;;;;4937547;29;20277;-75
2020/12/03 06:16:31;;;;;;;110.80;63.45;;;;;;;;;;4954693;29;20248;-75
2020/12/03 06:19:11;;;;;;;91.05;60.50;;;;;;;;;;4954578;29;20673;-75
2020/12/03 06:21:56;;;;;;;88.60;57.65;;;;;;;;;;4956714;28;20173;-75
2020/12/03 06:24:32;;;;;;;114.95;65.22;;;;;;;;;;4940590;29;20569;-75
2020/12/03 06:27:19;;;;;;;108.03;60.30;;;;;;;;;;4940509;29;20610;-75
2020/12/03 06:29:53;;;;;;;103.72;56.72;;;;;;;;;;4940521;29;20249;-76
2020/12/03 06:32:20;;;;;;;102.50;56.97;;;;;;;;;;4940300;29;20255;-76
2020/12/03 06:34:58;;;;;;;114.95;64.88;;;;;;;;;;4957761;28;20178;-76
2020/12/03 06:37:30;;;;;;;110.57;60.83;;;;;;;;;;4957839;29;20650;-76
2020/12/03 06:40:16;;;;;;;111.18;62.25;;;;;;;;;;4940816;29;20177;-76
2020/12/03 06:42:49;;;;;;;102.25;62.47;;;;;;;;;;4957441;29;20154;-76
2020/12/03 06:45:21;;;;;;;97.47;59.42;;;;;;;;;;4957696;28;20245;-75
2020/12/03 06:48:07;;;;;;;99.47;58.70;;;;;;;;;;4940190;29;20574;-76
2020/12/03 06:50:34;;;;;;;96.63;62.40;;;;;;;;;;4956543;29;20173;-75
2020/12/03 06:53:19;;;;;;;99.13;61.00;;;;;;;;;;4941013;29;20631;-76
2020/12/03 06:55:45;;;;;;;99.28;60.13;;;;;;;;;;4957468;29;20310;-75
2020/12/03 06:58:47;;;;;;;100.95;66.40;;;;;;;;;;4940310;29;20182;-76
2020/12/03 07:01:22;;;;;;;85.55;55.10;;;;;;;;;;4899725;29;20288;-77
2020/12/03 07:04:07;;;;;;;97.53;56.13;;;;;;;;;;4951220;29;20204;-77
2020/12/03 07:06:52;;;;;;;100.57;58.15;;;;;;;;;;4957557;29;20572;-77
2020/12/03 07:09:24;;;;;;;106.50;59.55;;;;;;;;;;4958427;29;20631;-75
2020/12/03 07:11:56;;;;;;;111.43;58.80;;;;;;;;;;4941265;29;20178;-77
2020/12/03 07:14:54;;;;;;;93.50;61.83;;;;;;;;;;4944164;29;20194;-78
2020/12/03 07:17:24;;;;;;;102.55;57.50;;;;;;;;;;4960039;29;20626;-79
2020/12/03 07:19:56;;;;;;;97.10;61.53;;;;;;;;;;4961275;29;20176;-81
2020/12/03 07:22:25;;;;;;;99.90;60.63;;;;;;;;;;4961949;29;20257;-79
2020/12/03 07:24:54;;;;;;;111.07;59.70;;;;;;;;;;4960184;28;20289;-79
2020/12/03 07:27:42;;;;;;;113.85;68.13;;;;;;;;;;4961479;29;20312;-79
2020/12/03 07:30:14;;;;;;;104.15;58.75;;;;;;;;;;4960382;29;20155;-79
2020/12/03 07:32:54;;;;;;;88.78;58.95;;;;;;;;;;4941906;29;20253;-79
2020/12/03 07:35:20;;;;;;;107.60;65.25;;;;;;;;;;4942484;29;20666;-78
2020/12/03 07:37:52;;;;;;;105.55;61.88;;;;;;;;;;4958487;29;20185;-78
2020/12/03 07:40:19;;;;;;;114.50;65.25;;;;;;;;;;4960773;29;20158;-80
2020/12/03 07:42:46;;;;;;;94.97;56.47;;;;;;;;;;4962698;29;20201;-79
2020/12/03 07:45:32;;;;;;;78.85;53.95;;;;;;;;;;4959225;28;20221;-79
2020/12/03 07:48:07;;;;;;;94.22;58.65;;;;;;;;;;4941831;29;20355;-79
2020/12/03 07:50:39;;;;;;;98.63;59.72;;;;;;;;;;4960394;29;20157;-80
2020/12/03 07:53:15;;;;;;;97.22;58.92;;;;;;;;;;4959781;29;20538;-79
2020/12/03 07:55:54;;;;;;;101.47;62.08;;;;;;;;;;4958290;29;20741;-79
2020/12/03 07:58:34;;;;;;;95.82;60.15;;;;;;;;;;4960323;29;20173;-79
2020/12/03 08:01:01;;;;;;;102.45;61.22;;;;;;;;;;4958947;29;20541;-78
2020/12/03 08:03:33;;;;;;;102.97;58.60;;;;;;;;;;4942055;28;20185;-79
2020/12/03 08:06:18;;;;;;;92.38;55.47;;;;;;;;;;4959051;29;20194;-79
2020/12/03 08:08:45;;;;;;;91.85;54.38;;;;;;;;;;4941109;29;20173;-78
2020/12/03 08:11:44;;;;;;;97.63;60.90;;;;;;;;;;4959946;29;20162;-78
2020/12/03 08:14:19;;;;;;;95.93;61.40;;;;;;;;;;4927089;28;20206;-78
2020/12/03 08:16:59;;;;;;;83.55;55.42;;;;;;;;;;4942220;29;20544;-80
2020/12/03 08:19:28;;;;;;;95.95;55.30;;;;;;;;;;4943018;29;20173;-79
2020/12/03 08:21:54;;;;;;;99.13;58.38;;;;;;;;;;4942724;29;20177;-79
2020/12/03 08:24:34;;;;;;;95.95;53.97;;;;;;;;;;4941893;29;20202;-79
2020/12/03 08:27:05;;;;;;;90.10;59.22;;;;;;;;;;4941866;29;20654;-82
2020/12/03 08:29:37;;;;;;;88.20;57.95;;;;;;;;;;4958401;29;20190;-77
2020/12/03 08:32:04;;;;;;;87.07;54.05;;;;;;;;;;4959972;29;20221;-79
2020/12/03 08:34:33;;;;;;;80.15;51.35;;;;;;;;;;4942197;29;20234;-81
2020/12/03 08:37:16;;;;;;;;;;;;;;;;;;;;;
2020/12/03 08:39:45;;;;;;;87.22;58.30;;;;;;;;;;4958409;29;20181;-79
2020/12/03 08:42:12;;;;;;;95.40;52.35;;;;;;;;;;4959156;29;20593;-79
2020/12/03 08:44:38;;;;;;;112.60;57.42;;;;;;;;;;4958869;28;20197;-79
2020/12/03 08:47:09;;;;;;;110.72;59.38;;;;;;;;;;4941994;29;20284;-79
2020/12/03 08:49:40;;;;;;;96.85;57.85;;;;;;;;;;4959039;29;20162;-78
2020/12/03 08:52:06;;;;;;;87.68;56.05;;;;;;;;;;4959111;29;20154;-79
2020/12/03 08:54:33;;;;;;;100.25;55.20;;;;;;;;;;4957919;28;20197;-78
2020/12/03 08:57:02;;;;;;;86.35;52.65;;;;;;;;;;4942139;29;20197;-79
2020/12/03 08:59:34;;;;;;;81.85;52.10;;;;;;;;;;4960509;29;20174;-80
2020/12/03 09:02:06;;;;;;;83.22;50.28;;;;;;;;;;4961829;29;20205;-79
2020/12/03 09:04:34;;;;;;;86.47;53.22;;;;;;;;;;4958746;28;20197;-79
2020/12/03 09:07:04;;;;;;;82.13;52.58;;;;;;;;;;4959757;29;20237;-79
2020/12/03 09:09:31;;;;;;;97.25;51.78;;;;;;;;;;4959165;29;20188;-79
2020/12/03 09:12:11;;;;;;;;;;;;;;;;;;;;;
2020/12/03 09:14:41;;;;;;;84.50;52.33;;;;;;;;;;4957519;28;20193;-79
2020/12/03 09:17:12;;;;;;;86.30;49.10;;;;;;;;;;4959200;29;20229;-79
2020/12/03 09:19:49;;;;;;;84.88;54.28;;;;;;;;;;4959728;29;20214;-79
2020/12/03 09:22:19;;;;;;;84.55;51.97;;;;;;;;;;4941132;29;20575;-79
2020/12/03 09:24:50;;;;;;;80.88;47.60;;;;;;;;;;4956936;28;20181;-78
2020/12/03 09:27:21;;;;;;;79.13;51.80;;;;;;;;;;4958756;29;20598;-79
2020/12/03 09:29:52;;;;;;;74.03;50.25;;;;;;;;;;4942035;29;20178;-78
2020/12/03 09:32:20;;;;;;;80.88;49.40;;;;;;;;;;4957577;29;20565;-79
2020/12/03 09:34:49;;;;;;;76.40;46.10;;;;;;;;;;4941430;29;20198;-79
2020/12/03 09:37:15;;;;;;;75.25;46.45;;;;;;;;;;4958039;29;20230;-79
2020/12/03 09:39:41;;;;;;;78.78;50.78;;;;;;;;;;4959502;29;20264;-78
2020/12/03 09:42:16;;;;;;;75.78;52.95;;;;;;;;;;4941522;29;20273;-79
2020/12/03 09:44:53;;;;;;;72.13;47.40;;;;;;;;;;4941627;29;20260;-79
2020/12/03 09:47:21;;;;;;;71.47;46.20;;;;;;;;;;4957840;29;20265;-79
2020/12/03 09:49:58;;;;;;;;;;;;;;;;;;;;;
2020/12/03 09:52:25;;;;;;;64.57;43.80;;;;;;;;;;4958504;29;20170;-79
2020/12/03 09:54:52;;;;;;;72.13;45.85;;;;;;;;;;4942250;29;20205;-79
2020/12/03 09:57:18;;;;;;;76.28;44.85;;;;;;;;;;4946565;29;20204;-79
2020/12/03 09:59:44;;;;;;;66.22;46.30;;;;;;;;;;4962513;29;20174;-79
2020/12/03 10:02:14;;;;;;;65.55;44.88;;;;;;;;;;4962688;29;20529;-80
2020/12/03 10:04:59;;;;;;;79.95;46.67;;;;;;;;;;4963690;28;20194;-79
2020/12/03 10:07:31;;;;;;;79.25;51.60;;;;;;;;;;4945673;29;20213;-78
2020/12/03 10:10:12;;;;;;;58.30;43.10;;;;;;;;;;4945110;29;20196;-79
2020/12/03 10:12:49;;;;;;;71.68;44.15;;;;;;;;;;4962183;29;20170;-79
2020/12/03 10:15:25;;;;;;;60.10;40.42;;;;;;;;;;4946711;29;20201;-79
2020/12/03 10:17:54;;;;;;;73.35;43.55;;;;;;;;;;4944983;29;20185;-78
2020/12/03 10:20:21;;;;;;;73.90;45.55;;;;;;;;;;4962674;29;20285;-79
2020/12/03 10:22:58;;;;;;;69.85;47.38;;;;;;;;;;4945828;29;20170;-79
2020/12/03 10:25:28;;;;;;;62.92;40.90;;;;;;;;;;4944584;29;20190;-79
2020/12/03 10:28:00;;;;;;;63.92;43.67;;;;;;;;;;4946215;29;20166;-79
2020/12/03 10:30:42;;;;;;;69.90;46.28;;;;;;;;;;4946578;29;20177;-79
2020/12/03 10:33:20;;;;;;;66.20;44.33;;;;;;;;;;4963297;29;20186;-79
2020/12/03 10:35:51;;;;;;;68.65;46.22;;;;;;;;;;4946414;29;20192;-79
2020/12/03 10:38:35;;;;;;;;;;;;;;;;;;;;;
2020/12/03 10:41:05;;;;;;;61.85;43.92;;;;;;;;;;4961736;29;20221;-79
2020/12/03 10:43:45;;;;;;;66.90;43.88;;;;;;;;;;4961223;28;20241;-79
2020/12/03 10:46:23;;;;;;;;;;;;;;;;;;;;;
2020/12/03 10:48:52;;;;;;;66.55;44.60;;;;;;;;;;4960084;29;20158;-78
2020/12/03 10:51:22;;;;;;;70.75;45.83;;;;;;;;;;4961474;29;20162;-79
2020/12/03 10:53:50;;;;;;;60.15;43.75;;;;;;;;;;4959786;28;20193;-79
2020/12/03 10:56:24;;;;;;;73.63;48.08;;;;;;;;;;4943632;29;20285;-78
2020/12/03 10:59:11;;;;;;;71.38;42.97;;;;;;;;;;4961871;29;20166;-78
2020/12/03 11:01:38;;;;;;;59.45;40.72;;;;;;;;;;4943855;29;20174;-78
2020/12/03 11:04:05;;;;;;;56.03;42.97;;;;;;;;;;4943727;29;20269;-78
2020/12/03 11:06:32;;;;;;;66.13;44.30;;;;;;;;;;4942531;29;20197;-77
2020/12/03 11:09:00;;;;;;;68.30;42.58;;;;;;;;;;4943323;29;20553;-79
2020/12/03 11:11:41;;;;;;;58.42;42.10;;;;;;;;;;4960503;29;20165;-78
2020/12/03 11:14:14;;;;;;;58.08;40.20;;;;;;;;;;4960607;28;20189;-79
2020/12/03 11:17:00;;;;;;;57.05;43.50;;;;;;;;;;4961403;29;20232;-79
2020/12/03 11:19:26;;;;;;;56.10;37.83;;;;;;;;;;4961928;29;20221;-78
2020/12/03 11:22:08;;;;;;;61.33;41.70;;;;;;;;;;4961232;29;20260;-79
2020/12/03 11:24:39;;;;;;;58.03;38.47;;;;;;;;;;4960143;28;20678;-79
2020/12/03 11:27:05;;;;;;;65.55;41.50;;;;;;;;;;4960870;29;20188;-79
2020/12/03 11:29:36;;;;;;;57.63;39.05;;;;;;;;;;4961055;29;20584;-79
2020/12/03 11:32:02;;;;;;;67.55;40.72;;;;;;;;;;4942792;29;20209;-80
2020/12/03 11:34:39;;;;;;;57.65;39.70;;;;;;;;;;4942925;29;20201;-80
2020/12/03 11:37:06;;;;;;;53.15;39.25;;;;;;;;;;4960797;29;20181;-80
2020/12/03 11:39:32;;;;;;;80.47;52.30;;;;;;;;;;4961165;29;20192;-79
2020/12/03 11:42:25;;;;;;;58.92;40.30;;;;;;;;;;4943242;29;20289;-79
2020/12/03 11:50:18;;;;;;;49.47;37.97;;;;;;;;;;4942560;29;20654;-78
2020/12/03 11:52:44;;;;;;;55.15;39.95;;;;;;;;;;4959856;29;20254;-78
2020/12/03 11:55:18;;;;;;;49.75;38.42;;;;;;;;;;4942327;29;20209;-78
2020/12/03 11:57:44;;;;;;;53.03;38.00;;;;;;;;;;4942972;29;20178;-79
2020/12/03 12:00:20;;;;;;;59.28;40.67;;;;;;;;;;4960179;29;20549;-79
2020/12/03 12:02:49;;;;;;;55.97;37.75;;;;;;;;;;4942856;29;20225;-79
2020/12/03 12:10:54;;;;;;;57.88;37.70;;;;;;;;;;4943737;29;20178;-79
2020/12/03 12:13:21;;;;;;;56.53;38.30;;;;;;;;;;4960444;28;20174;-78
2020/12/03 12:15:48;;;;;;;58.70;38.30;;;;;;;;;;4942349;29;20182;-79
2020/12/03 12:18:15;;;;;;;60.92;41.20;;;;;;;;;;4960131;28;20702;-79
2020/12/03 12:20:41;;;;;;;53.10;38.70;;;;;;;;;;4942812;29;20178;-79
2020/12/03 12:23:07;;;;;;;50.13;38.13;;;;;;;;;;4942316;29;20178;-80
2020/12/03 12:25:34;;;;;;;50.05;35.28;;;;;;;;;;4942717;29;20209;-79
2020/12/03 12:28:00;;;;;;;57.50;38.45;;;;;;;;;;4942476;29;20685;-78
2020/12/03 12:30:27;;;;;;;55.75;39.72;;;;;;;;;;4958662;29;20185;-79
2020/12/03 12:33:03;;;;;;;54.95;35.72;;;;;;;;;;4943085;29;20243;-78
2020/12/03 12:39:28;;;;;;;51.42;37.10;;;;;;;;;;4959713;29;20173;-78
2020/12/03 12:42:11;;;;;;;50.35;35.53;;;;;;;;;;4947289;29;20639;-79
2020/12/03 12:45:04;;;;;;;67.78;42.38;;;;;;;;;;4959689;28;20268;-79
2020/12/03 12:47:35;;;;;;;44.40;34.95;;;;;;;;;;4959906;29;20221;-80
2020/12/03 12:50:01;;;;;;;51.10;36.28;;;;;;;;;;4958432;29;20658;-79
2020/12/03 12:52:28;;;;;;;52.95;34.92;;;;;;;;;;4959713;29;20166;-78
2020/12/03 12:54:55;;;;;;;55.78;34.90;;;;;;;;;;4959712;28;20198;-80
2020/12/03 12:57:50;;;;;;;54.95;35.85;;;;;;;;;;4941589;29;20626;-80
2020/12/03 13:00:17;;;;;;;44.55;32.90;;;;;;;;;;4941807;29;20530;-79
2020/12/03 13:02:43;;;;;;;49.83;34.83;;;;;;;;;;4942570;29;20244;-79
2020/12/03 13:05:10;;;;;;;54.78;37.88;;;;;;;;;;4958715;28;20189;-79
2020/12/03 13:07:37;;;;;;;49.08;34.45;;;;;;;;;;4958556;29;20204;-79
2020/12/03 13:10:03;;;;;;;49.80;33.30;;;;;;;;;;4942662;29;20253;-79
2020/12/03 13:12:43;;;;;;;53.05;34.08;;;;;;;;;;4942973;29;20717;-79
2020/12/03 13:15:27;;;;;;;55.13;37.42;;;;;;;;;;4959831;28;20193;-79
2020/12/03 13:18:22;;;;;;;53.08;31.75;;;;;;;;;;4957267;29;20213;-79
2020/12/03 13:23:42;;;;;;;46.97;32.92;;;;;;;;;;4959458;28;20229;-79
2020/12/03 13:26:28;;;;;;;;;;;;;;;;;;;;;
2020/12/03 13:29:20;;;;;;;44.60;33.70;;;;;;;;;;4959692;28;20182;-79
2020/12/03 13:32:35;;;;;;;44.97;31.70;;;;;;;;;;4961264;29;20523;-80
2020/12/03 13:35:21;;;;;;;45.35;32.08;;;;;;;;;;4905970;29;20203;-78
2020/12/03 13:37:53;;;;;;;43.40;30.95;;;;;;;;;;4962068;29;20161;-79
2020/12/03 13:40:41;;;;;;;56.15;36.95;;;;;;;;;;4963165;29;20658;-79
2020/12/03 13:43:59;;;;;;;47.78;32.72;;;;;;;;;;4962971;28;20221;-79
2020/12/03 13:50:15;;;;;;;44.25;33.50;;;;;;;;;;4953000;29;20170;-80
2020/12/03 13:52:42;;;;;;;50.25;36.28;;;;;;;;;;4961066;29;20647;-80
2020/12/03 13:55:14;;;;;;;52.47;36.15;;;;;;;;;;4962250;28;20225;-80
2020/12/03 13:57:43;;;;;;;52.88;36.63;;;;;;;;;;4945808;29;20213;-79
2020/12/03 14:00:14;;;;;;;52.13;33.65;;;;;;;;;;4945490;29;20174;-80
2020/12/03 14:02:46;;;;;;;52.10;35.28;;;;;;;;;;4962846;29;20163;-79
2020/12/03 14:05:25;;;;;;;47.30;33.28;;;;;;;;;;4944938;29;20289;-79
2020/12/03 14:07:59;;;;;;;54.65;34.50;;;;;;;;;;4945504;29;20642;-79
2020/12/03 14:10:39;;;;;;;64.55;43.20;;;;;;;;;;4962677;29;20170;-79
2020/12/03 14:13:19;;;;;;;57.03;34.47;;;;;;;;;;4961832;28;20225;-80
2020/12/03 14:15:48;;;;;;;46.33;31.45;;;;;;;;;;4962719;29;20180;-80
2020/12/03 14:18:22;;;;;;;54.05;32.83;;;;;;;;;;4962567;29;20170;-79
2020/12/03 14:21:10;;;;;;;53.38;38.28;;;;;;;;;;4963233;29;20150;-79
2020/12/03 14:23:54;;;;;;;69.18;37.20;;;;;;;;;;4961960;28;20189;-79
2020/12/03 14:26:22;;;;;;;54.42;37.47;;;;;;;;;;4953345;29;20201;-79
2020/12/03 14:28:49;;;;;;;54.95;38.10;;;;;;;;;;4962761;29;20177;-80
2020/12/03 14:31:31;;;;;;;53.90;39.38;;;;;;;;;;4944583;29;20667;-80
2020/12/03 14:34:01;;;;;;;39.10;31.63;;;;;;;;;;4961729;28;20229;-79
2020/12/03 14:36:33;;;;;;;44.97;29.98;;;;;;;;;;4961827;29;20212;-79
2020/12/03 14:39:10;;;;;;;46.60;32.55;;;;;;;;;;4960888;29;20237;-80
2020/12/03 14:41:47;;;;;;;51.38;37.92;;;;;;;;;;4959262;28;20170;-77
2020/12/03 14:44:17;;;;;;;53.95;35.90;;;;;;;;;;4943566;29;20561;-79
2020/12/03 14:46:43;;;;;;;54.20;37.05;;;;;;;;;;4944196;29;20671;-78
2020/12/03 14:49:15;;;;;;;57.40;36.95;;;;;;;;;;4944845;29;20166;-80
2020/12/03 14:51:49;;;;;;;47.88;33.22;;;;;;;;;;4960298;29;20638;-79
2020/12/03 14:54:17;;;;;;;48.85;32.33;;;;;;;;;;4960542;28;20190;-80
2020/12/03 14:56:43;;;;;;;46.95;32.35;;;;;;;;;;4962563;29;20190;-80
2020/12/03 14:59:14;;;;;;;47.15;35.15;;;;;;;;;;4944186;29;20182;-79
2020/12/03 15:01:41;;;;;;;41.28;31.45;;;;;;;;;;4944135;29;20158;-80
2020/12/03 15:04:07;;;;;;;45.30;33.50;;;;;;;;;;4963037;28;20194;-79
2020/12/03 15:06:38;;;;;;;54.63;38.88;;;;;;;;;;4963041;29;20198;-78
2020/12/03 15:09:05;;;;;;;58.13;37.75;;;;;;;;;;4960549;29;20170;-80